createdAt,value
2019-03-08T00:00:28.260Z,5.22
2019-03-08T00:02:55.744Z,6.20
2019-03-08T00:05:23.215Z,6.28
2019-03-08T00:07:50.672Z,5.50
2019-03-08T00:10:18.085Z,4.40
2019-03-08T00:12:46.004Z,6.70
2019-03-08T00:15:13.471Z,3.37
2019-03-08T00:17:40.940Z,4.30
2019-03-08T00:20:10.030Z,3.92
2019-03-08T00:22:37.544Z,5.33
2019-03-08T00:25:04.990Z,6.17
2019-03-08T00:27:32.412Z,6.50
2019-03-08T00:29:59.912Z,7.17
2019-03-08T00:32:27.322Z,4.90
2019-03-08T00:34:54.847Z,6.53
2019-03-08T00:37:22.268Z,6.45
2019-03-08T00:39:49.768Z,7.35
2019-03-08T00:42:17.346Z,6.95
2019-03-08T00:44:44.831Z,8.03
2019-03-08T00:47:12.320Z,8.18
2019-03-08T00:49:39.810Z,10.23
2019-03-08T00:52:07.495Z,7.45
2019-03-08T00:54:34.974Z,6.28
2019-03-08T00:57:02.474Z,9.35
2019-03-08T00:59:29.940Z,8.40
2019-03-08T01:01:57.316Z,9.68
2019-03-08T01:04:24.735Z,9.23
2019-03-08T01:06:52.133Z,8.05
2019-03-08T01:09:19.799Z,7.65
2019-03-08T01:11:47.307Z,8.08
2019-03-08T01:14:14.716Z,7.10
2019-03-08T01:16:42.177Z,8.70
2019-03-08T01:19:09.688Z,6.95
2019-03-08T01:21:37.112Z,12.45
2019-03-08T01:24:04.512Z,9.73
2019-03-08T01:26:31.950Z,7.92
2019-03-08T01:28:59.363Z,9.15
2019-03-08T01:31:26.754Z,8.85
2019-03-08T01:33:54.333Z,9.25
2019-03-08T01:36:21.792Z,10.53
2019-03-08T01:38:49.193Z,11.00
2019-03-08T01:41:16.902Z,9.03
2019-03-08T01:43:44.324Z,10.53
2019-03-08T01:46:11.884Z,9.27
2019-03-08T01:48:39.387Z,12.47
2019-03-08T01:51:06.872Z,12.73
2019-03-08T01:53:34.305Z,15.25
2019-03-08T01:56:01.878Z,12.63
2019-03-08T01:58:29.281Z,13.50
2019-03-08T02:00:56.699Z,17.10
2019-03-08T02:03:24.160Z,12.20
2019-03-08T02:05:51.682Z,11.75
2019-03-08T02:08:19.202Z,12.53
2019-03-08T02:10:46.796Z,12.33
2019-03-08T02:13:14.496Z,11.70
2019-03-08T02:15:43.508Z,14.35
2019-03-08T02:18:10.999Z,15.07
2019-03-08T02:20:38.449Z,14.78
2019-03-08T02:23:05.931Z,17.10
2019-03-08T02:25:33.432Z,17.55
2019-03-08T02:28:00.904Z,14.95
2019-03-08T02:30:28.369Z,14.78
2019-03-08T02:32:55.864Z,14.93
2019-03-08T02:35:23.266Z,13.30
2019-03-08T02:37:50.662Z,13.30
2019-03-08T02:40:18.099Z,17.05
2019-03-08T02:42:46.009Z,15.75
2019-03-08T02:45:13.581Z,16.17
2019-03-08T02:47:41.022Z,17.30
2019-03-08T02:50:08.431Z,13.83
2019-03-08T02:52:35.825Z,15.03
2019-03-08T02:55:03.303Z,16.90
2019-03-08T02:57:30.771Z,13.95
2019-03-08T02:59:58.262Z,14.58
2019-03-08T03:02:25.962Z,17.82
2019-03-08T03:04:53.362Z,14.18
2019-03-08T03:07:20.838Z,13.50
2019-03-08T03:09:48.267Z,17.05
2019-03-08T03:12:15.684Z,16.27
2019-03-08T03:14:43.162Z,14.73
2019-03-08T03:17:10.882Z,15.70
2019-03-08T03:19:38.348Z,16.50
2019-03-08T03:22:05.834Z,17.05
2019-03-08T03:24:33.339Z,17.23
2019-03-08T03:27:00.839Z,18.92
2019-03-08T03:29:28.319Z,16.67
2019-03-08T03:31:55.920Z,14.55
2019-03-08T03:34:23.591Z,14.73
2019-03-08T03:36:50.985Z,20.30
2019-03-08T03:39:18.492Z,17.65
2019-03-08T03:41:45.970Z,15.60
2019-03-08T03:44:13.404Z,16.32
2019-03-08T03:46:40.912Z,15.68
2019-03-08T03:49:08.323Z,17.42
2019-03-08T03:51:35.797Z,14.83
2019-03-08T03:54:03.233Z,17.42
2019-03-08T03:56:30.740Z,17.32
2019-03-08T03:58:58.134Z,19.02
2019-03-08T04:01:32.148Z,18.62
2019-03-08T04:03:59.818Z,19.30
2019-03-08T04:06:27.298Z,18.07
2019-03-08T04:08:54.823Z,15.17
2019-03-08T04:11:22.290Z,15.55
2019-03-08T04:13:49.752Z,18.52
2019-03-08T04:16:17.127Z,15.43
2019-03-08T04:18:44.616Z,16.27
2019-03-08T04:21:12.237Z,16.00
2019-03-08T04:23:39.630Z,19.82
2019-03-08T04:26:07.024Z,14.97
2019-03-08T04:28:34.528Z,18.65
2019-03-08T04:31:01.930Z,13.88
2019-03-08T04:33:29.506Z,16.70
2019-03-08T04:35:57.083Z,17.27
2019-03-08T04:38:24.476Z,14.55
2019-03-08T04:40:51.882Z,18.25
2019-03-08T04:43:19.380Z,17.10
2019-03-08T04:45:46.853Z,16.48
2019-03-08T04:48:14.354Z,14.73
2019-03-08T04:50:45.766Z,17.23
2019-03-08T04:53:13.995Z,16.32
2019-03-08T04:55:41.659Z,14.53
2019-03-08T04:58:09.343Z,16.30
2019-03-08T05:00:36.830Z,15.15
2019-03-08T05:03:04.480Z,16.12
2019-03-08T05:05:32.005Z,17.00
2019-03-08T05:07:59.570Z,14.10
2019-03-08T05:10:27.020Z,14.63
2019-03-08T05:12:54.528Z,11.10
2019-03-08T05:15:22.048Z,13.03
2019-03-08T05:17:49.560Z,13.43
2019-03-08T05:20:16.956Z,16.27
2019-03-08T05:22:44.574Z,14.15
2019-03-08T05:25:12.458Z,14.57
2019-03-08T05:27:39.950Z,15.83
2019-03-08T05:30:07.602Z,15.32
2019-03-08T05:32:35.154Z,12.95
2019-03-08T05:35:02.616Z,12.65
2019-03-08T05:37:30.177Z,14.63
2019-03-08T05:39:57.664Z,12.75
2019-03-08T05:42:25.404Z,16.75
2019-03-08T05:44:53.004Z,14.53
2019-03-08T05:47:20.429Z,12.73
2019-03-08T05:49:47.896Z,14.38
2019-03-08T05:52:15.460Z,15.10
2019-03-08T05:54:42.968Z,11.43
2019-03-08T05:57:10.455Z,11.12
2019-03-08T05:59:38.124Z,14.23
2019-03-08T06:02:05.598Z,10.93
2019-03-08T06:04:33.257Z,12.37
2019-03-08T06:07:00.727Z,12.10
2019-03-08T06:09:28.123Z,10.03
2019-03-08T06:11:55.703Z,12.03
2019-03-08T06:14:23.206Z,16.32
2019-03-08T06:16:50.697Z,11.40
2019-03-08T06:19:18.298Z,12.28
2019-03-08T06:21:45.762Z,11.73
2019-03-08T06:24:13.365Z,9.25
2019-03-08T06:26:40.871Z,11.50
2019-03-08T06:29:08.334Z,11.20
2019-03-08T06:31:35.862Z,11.48
2019-03-08T06:34:03.359Z,12.40
2019-03-08T06:36:30.741Z,19.80
2019-03-08T06:38:58.210Z,11.73
2019-03-08T06:41:25.628Z,14.18
2019-03-08T06:43:53.087Z,9.85
2019-03-08T06:46:20.569Z,12.45
2019-03-08T06:48:48.087Z,11.05
2019-03-08T06:51:15.499Z,12.53
2019-03-08T06:53:42.990Z,10.28
2019-03-08T06:56:10.541Z,10.90
2019-03-08T06:58:43.570Z,10.98
2019-03-08T07:01:21.556Z,9.60
2019-03-08T07:03:49.238Z,13.85
2019-03-08T07:06:16.698Z,12.00
2019-03-08T07:08:44.211Z,11.05
2019-03-08T07:11:11.618Z,15.30
2019-03-08T07:13:39.181Z,11.47
2019-03-08T07:16:13.039Z,20.15
2019-03-08T07:18:35.818Z,16.37
2019-03-08T07:21:40.698Z,14.30
2019-03-08T07:24:36.084Z,12.53
2019-03-08T07:27:23.442Z,18.52
2019-03-08T07:30:08.568Z,11.80
2019-03-08T07:32:53.627Z,11.57
2019-03-08T07:35:40.239Z,10.58
2019-03-08T07:38:25.271Z,8.93
2019-03-08T07:41:28.855Z,9.95
2019-03-08T07:44:13.878Z,10.25
2019-03-08T07:46:57.303Z,9.10
2019-03-08T07:49:35.182Z,10.68
2019-03-08T07:52:33.796Z,9.45
2019-03-08T07:55:26.191Z,7.92
2019-03-08T07:58:11.437Z,8.13
2019-03-08T08:01:16.075Z,8.08
2019-03-08T08:03:50.080Z,8.80
2019-03-08T08:06:28.143Z,11.53
2019-03-08T08:09:18.607Z,9.48
2019-03-08T08:12:03.664Z,15.95
2019-03-08T08:14:48.781Z,13.50
2019-03-08T08:17:35.195Z,10.23
2019-03-08T08:20:22.277Z,9.00
2019-03-08T08:22:58.114Z,9.38
2019-03-08T08:25:47.507Z,12.70
2019-03-08T08:28:49.621Z,10.70
2019-03-08T08:31:39.657Z,11.00
2019-03-08T08:34:18.626Z,9.38
2019-03-08T08:37:03.824Z,13.78
2019-03-08T08:39:56.404Z,13.15
2019-03-08T08:42:39.182Z,10.65
2019-03-08T08:45:28.597Z,11.00
2019-03-08T08:48:17.840Z,9.83
2019-03-08T08:50:51.253Z,10.25
2019-03-08T08:53:46.907Z,9.93
2019-03-08T08:56:51.488Z,15.03
2019-03-08T08:59:44.137Z,9.27
2019-03-08T09:02:27.203Z,10.75
2019-03-08T09:05:26.204Z,9.80
2019-03-08T09:08:12.628Z,11.38
2019-03-08T09:11:00.682Z,12.47
2019-03-08T09:13:36.819Z,12.20
2019-03-08T09:16:32.029Z,10.72
2019-03-08T09:19:17.090Z,7.05
2019-03-08T09:21:59.972Z,11.05
2019-03-08T09:24:49.377Z,15.18
2019-03-08T09:27:38.505Z,10.03
2019-03-08T09:30:13.642Z,9.25
2019-03-08T09:33:03.844Z,9.00
2019-03-08T09:35:45.479Z,10.00
2019-03-08T09:38:28.665Z,9.30
2019-03-08T09:41:13.551Z,14.58
2019-03-08T09:43:52.538Z,11.93
2019-03-08T09:46:36.234Z,12.67
2019-03-08T09:49:28.725Z,9.43
2019-03-08T09:52:17.916Z,11.40
2019-03-08T09:55:03.435Z,10.23
2019-03-08T09:57:56.155Z,13.28
2019-03-08T10:00:40.980Z,10.00
2019-03-08T10:03:36.460Z,9.87
2019-03-08T10:06:31.594Z,11.50
2019-03-08T10:09:16.767Z,14.07
2019-03-08T10:11:55.696Z,9.95
2019-03-08T10:14:28.300Z,9.73
2019-03-08T10:17:13.455Z,8.35
2019-03-08T10:19:46.294Z,12.53
2019-03-08T10:22:26.203Z,13.93
2019-03-08T10:25:15.614Z,12.63
2019-03-08T10:28:02.061Z,10.67
2019-03-08T10:30:45.865Z,11.17
2019-03-08T10:33:31.902Z,10.00
2019-03-08T10:36:21.086Z,9.73
2019-03-08T10:39:19.843Z,9.15
2019-03-08T10:41:57.567Z,7.45
2019-03-08T10:44:47.122Z,8.57
2019-03-08T10:47:55.785Z,9.33
2019-03-08T10:50:23.875Z,8.30
2019-03-08T10:53:06.268Z,10.23
2019-03-08T10:55:51.131Z,11.50
2019-03-08T10:58:28.472Z,9.40
2019-03-08T11:01:20.995Z,11.33
2019-03-08T11:04:10.401Z,12.93
2019-03-08T11:06:57.843Z,11.47
2019-03-08T11:09:50.127Z,7.70
2019-03-08T11:12:38.517Z,10.90
2019-03-08T11:15:30.698Z,8.25
2019-03-08T11:18:29.223Z,9.68
2019-03-08T11:21:27.712Z,5.53
2019-03-08T11:24:14.313Z,5.65
2019-03-08T11:27:05.001Z,5.90
2019-03-08T11:29:39.996Z,8.98
2019-03-08T11:32:23.309Z,8.18
2019-03-08T11:34:55.442Z,7.12
2019-03-08T11:37:40.497Z,11.10
2019-03-08T11:40:36.084Z,7.12
2019-03-08T11:43:25.340Z,7.95
2019-03-08T11:46:08.071Z,10.35
2019-03-08T11:48:54.425Z,9.50
2019-03-08T11:51:53.026Z,6.65
2019-03-08T11:54:41.513Z,8.68
2019-03-08T11:57:23.058Z,7.33
2019-03-08T12:00:06.034Z,7.47
2019-03-08T12:02:46.941Z,5.72
2019-03-08T12:05:33.404Z,6.58
2019-03-08T12:08:18.865Z,6.15
2019-03-08T12:11:04.629Z,8.83
2019-03-08T12:14:03.388Z,6.05
2019-03-08T12:17:04.902Z,7.12
2019-03-08T12:19:47.682Z,5.03
2019-03-08T12:22:39.884Z,9.10
2019-03-08T12:25:14.013Z,5.92
2019-03-08T12:28:06.223Z,5.72
2019-03-08T12:31:01.374Z,6.70
2019-03-08T12:33:44.966Z,5.70
2019-03-08T12:36:21.727Z,5.20
2019-03-08T12:39:07.110Z,5.92
2019-03-08T12:41:44.294Z,5.05
2019-03-08T12:44:26.685Z,7.28
2019-03-08T12:47:16.234Z,6.30
2019-03-08T12:50:11.711Z,4.75
2019-03-08T12:53:01.248Z,6.58
2019-03-08T12:55:39.444Z,3.45
2019-03-08T12:58:24.599Z,6.83
2019-03-08T13:01:29.356Z,4.47
2019-03-08T13:04:28.066Z,6.78
2019-03-08T13:07:14.492Z,4.42
2019-03-08T13:09:47.001Z,2.75
2019-03-08T13:12:14.476Z,4.25
2019-03-08T13:14:41.955Z,4.55
2019-03-08T13:17:09.447Z,2.65
2019-03-08T13:19:37.167Z,4.17
2019-03-08T13:22:04.632Z,3.90
2019-03-08T13:24:32.153Z,3.10
2019-03-08T13:26:59.657Z,4.08
2019-03-08T13:29:27.147Z,3.62
2019-03-08T13:31:54.828Z,3.40
2019-03-08T13:34:22.327Z,3.62
2019-03-08T13:36:49.906Z,4.00
2019-03-08T13:39:17.437Z,4.75
2019-03-08T13:41:44.852Z,3.20
2019-03-08T13:44:12.308Z,1.80
2019-03-08T13:46:39.910Z,3.08
2019-03-08T13:49:07.305Z,6.47
2019-03-08T13:51:35.141Z,3.02
2019-03-08T13:54:02.723Z,4.35
2019-03-08T13:56:30.203Z,3.87
2019-03-08T13:58:57.618Z,4.75
2019-03-08T14:01:25.048Z,5.25
2019-03-08T14:03:52.571Z,3.70
2019-03-08T14:06:20.120Z,5.25
2019-03-08T14:08:47.725Z,3.83
2019-03-08T14:11:15.286Z,4.70
2019-03-08T14:13:42.779Z,3.30
2019-03-08T14:16:10.309Z,7.25
2019-03-08T14:18:40.571Z,5.20
2019-03-08T14:21:08.085Z,4.95
2019-03-08T14:23:35.859Z,3.62
2019-03-08T14:26:03.340Z,4.80
2019-03-08T14:28:30.825Z,2.98
2019-03-08T14:31:03.634Z,3.47
2019-03-08T14:33:34.335Z,4.33
2019-03-08T14:36:02.904Z,7.15
2019-03-08T14:38:36.595Z,5.20
2019-03-08T14:41:09.799Z,7.28
2019-03-08T14:43:52.422Z,4.40
2019-03-08T14:46:42.326Z,3.65
2019-03-08T14:49:09.926Z,5.78
2019-03-08T14:51:37.426Z,7.25
2019-03-08T14:54:06.009Z,4.97
2019-03-08T14:56:35.886Z,6.40
2019-03-08T14:59:03.311Z,6.30
2019-03-08T15:01:30.774Z,5.83
2019-03-08T15:03:58.261Z,4.55
2019-03-08T15:06:27.954Z,7.62
2019-03-08T15:08:55.907Z,3.65
2019-03-08T15:11:24.742Z,3.15
2019-03-08T15:13:52.283Z,7.22
2019-03-08T15:16:19.762Z,5.28
2019-03-08T15:18:47.237Z,5.62
2019-03-08T15:21:14.740Z,6.47
2019-03-08T15:23:42.163Z,5.80
2019-03-08T15:26:10.005Z,5.40
2019-03-08T15:28:37.432Z,5.08
2019-03-08T15:31:04.856Z,6.55
2019-03-08T15:33:32.400Z,6.25
2019-03-08T15:35:59.879Z,6.53
2019-03-08T15:38:27.285Z,5.75
2019-03-08T15:40:55.122Z,4.78
2019-03-08T15:43:22.568Z,7.53
2019-03-08T15:45:51.958Z,5.35
2019-03-08T15:48:19.508Z,6.45
2019-03-08T15:50:48.100Z,6.50
2019-03-08T15:53:15.665Z,5.08
2019-03-08T15:55:52.476Z,6.00
2019-03-08T15:58:12.929Z,4.03
2019-03-08T16:00:41.114Z,5.28
2019-03-08T16:03:08.542Z,7.45
2019-03-08T16:05:36.108Z,6.78
2019-03-08T16:08:03.926Z,5.97
2019-03-08T16:10:31.635Z,7.87
2019-03-08T16:12:59.146Z,8.10
2019-03-08T16:15:26.591Z,7.80
2019-03-08T16:17:54.150Z,7.87
2019-03-08T16:20:21.575Z,4.85
2019-03-08T16:22:49.008Z,9.13
2019-03-08T16:25:16.493Z,5.78
2019-03-08T16:27:43.988Z,9.35
2019-03-08T16:30:11.513Z,7.62
2019-03-08T16:32:53.622Z,7.62
2019-03-08T16:35:21.815Z,7.83
2019-03-08T16:38:11.327Z,7.15
2019-03-08T16:41:00.455Z,6.20
2019-03-08T16:43:42.176Z,11.68
2019-03-08T16:46:33.387Z,5.67
2019-03-08T16:49:14.665Z,9.60
2019-03-08T16:52:09.563Z,9.38
2019-03-08T16:54:57.197Z,6.70
2019-03-08T16:57:45.221Z,7.17
2019-03-08T17:00:40.976Z,9.68
2019-03-08T17:03:23.505Z,9.15
2019-03-08T17:06:00.614Z,9.83
2019-03-08T17:08:37.361Z,8.93
2019-03-08T17:11:32.737Z,5.85
2019-03-08T17:14:09.223Z,9.18
2019-03-08T17:16:55.635Z,10.85
2019-03-08T17:19:44.788Z,7.53
2019-03-08T17:22:27.138Z,8.50
2019-03-08T17:25:09.073Z,6.08
2019-03-08T17:28:07.447Z,8.50
2019-03-08T17:30:49.759Z,7.62
2019-03-08T17:33:28.872Z,7.15
2019-03-08T17:36:27.161Z,7.15
2019-03-08T17:39:19.359Z,8.80
2019-03-08T17:42:08.615Z,7.42
2019-03-08T17:44:45.224Z,8.53
2019-03-08T17:47:26.378Z,7.33
2019-03-08T17:50:21.912Z,10.10
2019-03-08T17:53:07.116Z,6.90
2019-03-08T17:55:43.319Z,8.85
2019-03-08T17:58:24.314Z,10.93
2019-03-08T18:01:19.608Z,12.47
2019-03-08T18:04:12.160Z,7.28
2019-03-08T18:06:53.945Z,8.88
2019-03-08T18:09:39.178Z,6.28
2019-03-08T18:12:25.591Z,6.67
2019-03-08T18:15:06.500Z,9.65
2019-03-08T18:17:52.821Z,7.47
2019-03-08T18:20:39.280Z,7.85
2019-03-08T18:23:24.498Z,7.20
2019-03-08T18:25:58.053Z,15.20
2019-03-08T18:28:47.200Z,8.25
2019-03-08T18:31:44.711Z,8.83
2019-03-08T18:34:49.233Z,17.05
2019-03-08T18:37:41.397Z,9.48
2019-03-08T18:40:28.088Z,16.93
2019-03-08T18:43:02.917Z,16.57
2019-03-08T18:45:48.139Z,11.88
2019-03-08T18:48:33.159Z,10.03
2019-03-08T18:51:18.153Z,11.03
2019-03-08T18:54:13.863Z,13.68
2019-03-08T18:56:56.172Z,10.70
2019-03-08T18:59:40.929Z,11.80
2019-03-08T19:02:26.362Z,7.55
2019-03-08T19:05:10.544Z,10.75
2019-03-08T19:07:47.874Z,12.93
2019-03-08T19:10:37.310Z,11.93
2019-03-08T19:13:29.917Z,9.83
2019-03-08T19:16:19.208Z,13.13
2019-03-08T19:18:58.831Z,10.65
2019-03-08T19:21:43.902Z,11.08
2019-03-08T19:24:16.989Z,12.95
2019-03-08T19:27:12.314Z,10.70
2019-03-08T19:29:50.956Z,9.53
2019-03-08T19:32:43.558Z,10.80
2019-03-08T19:35:24.584Z,8.25
2019-03-08T19:38:05.588Z,8.98
2019-03-08T19:40:49.838Z,8.83
2019-03-08T19:43:25.443Z,7.42
2019-03-08T19:46:26.730Z,7.55
2019-03-08T19:49:28.588Z,7.65
2019-03-08T19:52:21.139Z,8.80
2019-03-08T19:54:53.752Z,9.38
2019-03-08T19:57:38.176Z,7.28
2019-03-08T20:00:23.666Z,7.78
2019-03-08T20:03:12.910Z,4.95
2019-03-08T20:06:02.306Z,6.08
2019-03-08T20:08:47.392Z,5.37
2019-03-08T20:11:39.833Z,7.25
2019-03-08T20:14:26.632Z,6.17
2019-03-08T20:17:08.934Z,6.17
2019-03-08T20:19:55.849Z,5.40
2019-03-08T20:22:45.272Z,6.85
2019-03-08T20:25:26.136Z,4.92
2019-03-08T20:28:24.592Z,6.05
2019-03-08T20:31:23.262Z,6.22
2019-03-08T20:34:05.160Z,4.40
2019-03-08T20:36:55.749Z,4.92
2019-03-08T20:39:35.210Z,5.95
2019-03-08T20:42:08.052Z,5.37
2019-03-08T20:44:39.878Z,5.62
2019-03-08T20:47:20.381Z,4.33
2019-03-08T20:49:47.819Z,4.50
2019-03-08T20:52:15.595Z,4.80
2019-03-08T20:54:43.037Z,3.70
2019-03-08T20:57:10.951Z,3.87
2019-03-08T20:59:38.509Z,2.65
2019-03-08T21:02:06.262Z,4.17
2019-03-08T21:04:33.717Z,5.33
2019-03-08T21:07:01.460Z,4.12
2019-03-08T21:09:30.490Z,4.08
2019-03-08T21:11:57.962Z,5.70
2019-03-08T21:14:25.865Z,2.87
2019-03-08T21:16:53.426Z,4.12
2019-03-08T21:19:20.973Z,5.08
2019-03-08T21:21:48.819Z,2.67
2019-03-08T21:24:16.273Z,4.33
2019-03-08T21:26:43.779Z,2.33
2019-03-08T21:29:11.199Z,5.58
2019-03-08T21:31:38.634Z,3.45
2019-03-08T21:34:06.047Z,3.35
2019-03-08T21:36:33.779Z,3.95
2019-03-08T21:39:01.369Z,3.00
2019-03-08T21:41:28.820Z,3.30
2019-03-08T21:43:56.272Z,3.35
2019-03-08T21:46:23.731Z,3.60
2019-03-08T21:48:51.119Z,2.42
2019-03-08T21:51:19.845Z,3.17
2019-03-08T21:53:47.308Z,4.55
2019-03-08T21:56:14.872Z,3.50
2019-03-08T21:58:42.392Z,5.37
2019-03-08T22:01:09.793Z,2.47
2019-03-08T22:03:37.229Z,2.95
2019-03-08T22:06:04.979Z,2.33
2019-03-08T22:08:32.389Z,2.62
2019-03-08T22:11:17.452Z,2.62
2019-03-08T22:13:44.935Z,2.98
2019-03-08T22:16:12.600Z,5.22
2019-03-08T22:18:40.178Z,4.03
2019-03-08T22:21:07.648Z,5.15
2019-03-08T22:23:35.082Z,2.70
2019-03-08T22:26:02.614Z,2.27
2019-03-08T22:28:30.106Z,3.50
2019-03-08T22:30:57.559Z,3.35
2019-03-08T22:33:24.971Z,3.40
2019-03-08T22:35:52.364Z,4.35
2019-03-08T22:38:19.767Z,2.50
2019-03-08T22:40:47.258Z,3.30
2019-03-08T22:43:14.727Z,3.90
2019-03-08T22:45:42.140Z,3.90
2019-03-08T22:48:09.549Z,3.85
2019-03-08T22:50:36.946Z,4.08
2019-03-08T22:53:04.483Z,4.05
2019-03-08T22:55:32.103Z,22.73
2019-03-08T22:57:59.550Z,15.60
2019-03-08T23:00:29.956Z,7.20
2019-03-08T23:02:57.381Z,8.05
2019-03-08T23:05:25.023Z,12.50
2019-03-08T23:07:52.419Z,7.45
2019-03-08T23:10:19.913Z,5.17
2019-03-08T23:12:47.332Z,4.10
2019-03-08T23:15:15.117Z,3.15
2019-03-08T23:17:42.552Z,4.87
2019-03-08T23:20:09.949Z,2.98
2019-03-08T23:22:37.484Z,4.72
2019-03-08T23:25:05.002Z,3.80
2019-03-08T23:27:37.604Z,5.55
2019-03-08T23:30:15.516Z,6.37
2019-03-08T23:32:46.511Z,5.20
2019-03-08T23:35:14.000Z,3.02
2019-03-08T23:37:41.496Z,4.15
2019-03-08T23:40:09.225Z,3.98
2019-03-08T23:42:36.710Z,4.60
2019-03-08T23:45:04.193Z,4.65
2019-03-08T23:47:31.754Z,3.37
2019-03-08T23:49:59.250Z,4.72
2019-03-08T23:52:26.951Z,3.70
2019-03-08T23:54:54.640Z,3.35
2019-03-08T23:57:22.132Z,3.85
2019-03-08T23:59:49.565Z,4.00
